PWSweather.com
Personal Weather Stations
Station Observations
KMIEASTT1
Tawas Bay, East Tawas, MI 48730

Tawas BayEast Tawas, MI 48730

Lat: 44.28, Lon: -83.48

Elevation: 600

Station Type: Davis VantagePro

http://www.tawasbayweather.com

High Low Average
Temperature 10.7°F-11.8°C -9.1°F-22.8°C 2.3°F-16.5°C
Dew Point 5.8°F-14.6°C -12.6°F-24.8°C -2.5°F-19.2°C
Winds 11.0 mph 17.7 kmh Calm Calm 5.0 mph SW8.0 kmh SW
Wind Gusts 15.0 mph24.1 kmh -- 7.0 mph11.3 kmh
Humidity 86% 73% 80%
Pressure 30.46 in1031.5 mb 30.34 in1027.4 mb -
Precipitation 0.00 in0.0 mm - -
Hour Temp Dew Point Humidity Winds Wind Gusts Pressure Precip Precip Rate Daily Precip Total
12:00 AM -3.7°F-19.8°C -9.4°F-23.0°C 76% 2.0 mph W3.2 kmh W 4.0 mph6.4 kmh 30.42 in1030.1 mb 0.00 in0.0 mm 0.00 in0.0 mm 0.00 in0.0 mm
12:15 AM -3.9°F-19.9°C -9.3°F-22.9°C 77% 3.0 mph W4.8 kmh W 5.0 mph8.0 kmh 30.42 in1030.1 mb 0.00 in0.0 mm 0.00 in0.0 mm 0.00 in0.0 mm
12:30 AM -4.0°F-20.0°C -9.4°F-23.0°C 77% 2.0 mph W3.2 kmh W 4.0 mph6.4 kmh 30.42 in1030.1 mb 0.00 in0.0 mm 0.00 in0.0 mm 0.00 in0.0 mm
12:45 AM -3.9°F-19.9°C -9.3°F-22.9°C 77% 3.0 mph WSW4.8 kmh WSW 5.0 mph8.0 kmh 30.41 in1029.8 mb 0.00 in0.0 mm 0.00 in0.0 mm 0.00 in0.0 mm
01:00 AM -4.3°F-20.2°C -9.4°F-23.0°C 78% Calm Calm 3.0 mph4.8 kmh 30.42 in1030.1 mb 0.00 in0.0 mm 0.00 in0.0 mm 0.00 in0.0 mm
01:15 AM -4.7°F-20.4°C -9.5°F-23.1°C 79% 2.0 mph WSW3.2 kmh WSW 4.0 mph6.4 kmh 30.42 in1030.1 mb 0.00 in0.0 mm 0.00 in0.0 mm 0.00 in0.0 mm
01:30 AM -4.8°F-20.4°C -9.6°F-23.1°C 79% 1.0 mph W1.6 kmh W 4.0 mph6.4 kmh 30.42 in1030.1 mb 0.00 in0.0 mm 0.00 in0.0 mm 0.00 in0.0 mm
01:45 AM -5.2°F-20.7°C -9.8°F-23.2°C 80% Calm Calm 2.0 mph3.2 kmh 30.42 in1030.1 mb 0.00 in0.0 mm 0.00 in0.0 mm 0.00 in0.0 mm
02:00 AM -5.5°F-20.8°C -10.1°F-23.4°C 80% 1.0 mph WNW1.6 kmh WNW 2.0 mph3.2 kmh 30.42 in1030.1 mb 0.00 in0.0 mm 0.00 in0.0 mm 0.00 in0.0 mm
02:15 AM -5.4°F-20.8°C -9.7°F-23.2°C 81% 2.0 mph WSW3.2 kmh WSW 3.0 mph4.8 kmh 30.42 in1030.1 mb 0.00 in0.0 mm 0.00 in0.0 mm 0.00 in0.0 mm
02:30 AM -5.6°F-20.9°C -9.9°F-23.3°C 81% Calm Calm 1.0 mph1.6 kmh 30.42 in1030.1 mb 0.00 in0.0 mm 0.00 in0.0 mm 0.00 in0.0 mm
02:45 AM -2.1°F-18.9°C -7.0°F-21.7°C 79% 8.0 mph E12.9 kmh E 10.0 mph16.1 kmh 30.42 in1030.1 mb 0.00 in0.0 mm 0.00 in0.0 mm 0.00 in0.0 mm
03:00 AM -2.1°F-18.9°C -7.0°F-21.7°C 79% 5.0 mph ENE8.0 kmh ENE 7.0 mph11.3 kmh 30.42 in1030.1 mb 0.00 in0.0 mm 0.00 in0.0 mm 0.00 in0.0 mm
03:15 AM -2.1°F-18.9°C -6.7°F-21.5°C 80% 7.0 mph NE11.3 kmh NE 8.0 mph12.9 kmh 30.43 in1030.5 mb 0.00 in0.0 mm 0.00 in0.0 mm 0.00 in0.0 mm
03:30 AM -2.6°F-19.2°C -7.2°F-21.8°C 80% 7.0 mph ENE11.3 kmh ENE 9.0 mph14.5 kmh 30.43 in1030.5 mb 0.00 in0.0 mm 0.00 in0.0 mm 0.00 in0.0 mm
03:45 AM -6.3°F-21.3°C -10.4°F-23.6°C 82% 2.0 mph WSW3.2 kmh WSW 4.0 mph6.4 kmh 30.44 in1030.8 mb 0.00 in0.0 mm 0.00 in0.0 mm 0.00 in0.0 mm
04:00 AM -6.5°F-21.4°C -10.6°F-23.7°C 82% 1.0 mph WNW1.6 kmh WNW 3.0 mph4.8 kmh 30.44 in1030.8 mb 0.00 in0.0 mm 0.00 in0.0 mm 0.00 in0.0 mm
04:15 AM -6.4°F-21.3°C -10.5°F-23.6°C 82% 2.0 mph W3.2 kmh W 4.0 mph6.4 kmh 30.44 in1030.8 mb 0.00 in0.0 mm 0.00 in0.0 mm 0.00 in0.0 mm
04:30 AM -6.2°F-21.2°C -10.3°F-23.5°C 82% 1.0 mph SW1.6 kmh SW 3.0 mph4.8 kmh 30.44 in1030.8 mb 0.00 in0.0 mm 0.00 in0.0 mm 0.00 in0.0 mm
04:45 AM -6.2°F-21.2°C -10.0°F-23.3°C 83% 1.0 mph SW1.6 kmh SW 3.0 mph4.8 kmh 30.44 in1030.8 mb 0.00 in0.0 mm 0.00 in0.0 mm 0.00 in0.0 mm
05:00 AM -4.2°F-20.1°C -8.3°F-22.4°C 82% 5.0 mph NE8.0 kmh NE 8.0 mph12.9 kmh 30.44 in1030.8 mb 0.00 in0.0 mm 0.00 in0.0 mm 0.00 in0.0 mm
05:15 AM -4.2°F-20.1°C -8.0°F-22.2°C 83% 5.0 mph NE8.0 kmh NE 6.0 mph9.7 kmh 30.43 in1030.5 mb 0.00 in0.0 mm 0.00 in0.0 mm 0.00 in0.0 mm
05:30 AM -4.1°F-20.1°C -8.0°F-22.2°C 83% 4.0 mph ENE6.4 kmh ENE 5.0 mph8.0 kmh 30.44 in1030.8 mb 0.00 in0.0 mm 0.00 in0.0 mm 0.00 in0.0 mm
05:45 AM -6.6°F-21.4°C -10.2°F-23.4°C 84% 2.0 mph W3.2 kmh W 3.0 mph4.8 kmh 30.44 in1030.8 mb 0.00 in0.0 mm 0.00 in0.0 mm 0.00 in0.0 mm
06:00 AM -6.7°F-21.5°C -10.3°F-23.5°C 84% 1.0 mph W1.6 kmh W 3.0 mph4.8 kmh 30.44 in1030.8 mb 0.00 in0.0 mm 0.00 in0.0 mm 0.00 in0.0 mm
06:15 AM -5.1°F-20.6°C -8.7°F-22.6°C 84% 7.0 mph E11.3 kmh E 7.0 mph11.3 kmh 30.44 in1030.8 mb 0.00 in0.0 mm 0.00 in0.0 mm 0.00 in0.0 mm
06:30 AM -5.4°F-20.8°C -9.0°F-22.8°C 84% 8.0 mph E12.9 kmh E 9.0 mph14.5 kmh 30.44 in1030.8 mb 0.00 in0.0 mm 0.00 in0.0 mm 0.00 in0.0 mm
06:45 AM -7.4°F-21.9°C -10.9°F-23.8°C 84% 2.0 mph NW3.2 kmh NW 3.0 mph4.8 kmh 30.43 in1030.5 mb 0.00 in0.0 mm 0.00 in0.0 mm 0.00 in0.0 mm
07:00 AM -7.6°F-22.0°C -11.1°F-23.9°C 84% 1.0 mph NW1.6 kmh NW 2.0 mph3.2 kmh 30.42 in1030.1 mb 0.00 in0.0 mm 0.00 in0.0 mm 0.00 in0.0 mm
07:15 AM -7.4°F-21.9°C -10.7°F-23.7°C 85% Calm Calm 1.0 mph1.6 kmh 30.40 in1029.5 mb 0.00 in0.0 mm 0.00 in0.0 mm 0.00 in0.0 mm
07:30 AM -7.4°F-21.9°C -10.7°F-23.7°C 85% Calm Calm -- 30.40 in1029.5 mb 0.00 in0.0 mm 0.00 in0.0 mm 0.00 in0.0 mm
07:45 AM -7.4°F-21.9°C -10.7°F-23.7°C 85% Calm Calm -- 30.40 in1029.5 mb 0.00 in0.0 mm 0.00 in0.0 mm 0.00 in0.0 mm
08:00 AM -7.9°F-22.2°C -11.2°F-24.0°C 85% Calm Calm -- 30.39 in1029.1 mb 0.00 in0.0 mm 0.00 in0.0 mm 0.00 in0.0 mm
08:15 AM -8.6°F-22.6°C -12.1°F-24.5°C 84% Calm Calm -- 30.40 in1029.5 mb 0.00 in0.0 mm 0.00 in0.0 mm 0.00 in0.0 mm
08:30 AM -9.1°F-22.8°C -12.6°F-24.8°C 84% Calm Calm -- 30.40 in1029.5 mb 0.00 in0.0 mm 0.00 in0.0 mm 0.00 in0.0 mm
08:45 AM -9.0°F-22.8°C -12.3°F-24.6°C 85% Calm Calm -- 30.41 in1029.8 mb 0.00 in0.0 mm 0.00 in0.0 mm 0.00 in0.0 mm
09:00 AM -8.6°F-22.6°C -11.9°F-24.4°C 85% Calm Calm -- 30.42 in1030.1 mb 0.00 in0.0 mm 0.00 in0.0 mm 0.00 in0.0 mm
09:15 AM -8.9°F-22.7°C -12.2°F-24.6°C 85% Calm Calm -- 30.42 in1030.1 mb 0.00 in0.0 mm 0.00 in0.0 mm 0.00 in0.0 mm
09:30 AM -8.0°F-22.2°C -11.3°F-24.1°C 85% 2.0 mph W3.2 kmh W 3.0 mph4.8 kmh 30.42 in1030.1 mb 0.00 in0.0 mm 0.00 in0.0 mm 0.00 in0.0 mm
09:45 AM -7.6°F-22.0°C -10.7°F-23.7°C 86% 3.0 mph W4.8 kmh W 5.0 mph8.0 kmh 30.43 in1030.5 mb 0.00 in0.0 mm 0.00 in0.0 mm 0.00 in0.0 mm
10:00 AM -7.5°F-21.9°C -10.8°F-23.8°C 85% 2.0 mph SW3.2 kmh SW 4.0 mph6.4 kmh 30.43 in1030.5 mb 0.00 in0.0 mm 0.00 in0.0 mm 0.00 in0.0 mm
10:15 AM -7.0°F-21.7°C -10.1°F-23.4°C 86% 3.0 mph WSW4.8 kmh WSW 3.0 mph4.8 kmh 30.45 in1031.2 mb 0.00 in0.0 mm 0.00 in0.0 mm 0.00 in0.0 mm
10:30 AM -6.1°F-21.2°C -9.2°F-22.9°C 86% 2.0 mph WSW3.2 kmh WSW 3.0 mph4.8 kmh 30.45 in1031.2 mb 0.00 in0.0 mm 0.00 in0.0 mm 0.00 in0.0 mm
10:45 AM -4.0°F-20.0°C -7.1°F-21.7°C 86% 1.0 mph SW1.6 kmh SW 1.0 mph1.6 kmh 30.45 in1031.2 mb 0.00 in0.0 mm 0.00 in0.0 mm 0.00 in0.0 mm
11:00 AM -4.0°F-20.0°C -7.6°F-22.0°C 84% 1.0 mph SW1.6 kmh SW 3.0 mph4.8 kmh 30.45 in1031.2 mb 0.00 in0.0 mm 0.00 in0.0 mm 0.00 in0.0 mm
11:15 AM 0.1°F-17.7°C -3.7°F-19.8°C 84% 3.0 mph E4.8 kmh E 3.0 mph4.8 kmh 30.45 in1031.2 mb 0.00 in0.0 mm 0.00 in0.0 mm 0.00 in0.0 mm
11:30 AM 0.2°F-17.7°C -3.7°F-19.8°C 83% Calm Calm 3.0 mph4.8 kmh 30.45 in1031.2 mb 0.00 in0.0 mm 0.00 in0.0 mm 0.00 in0.0 mm
11:45 AM 0.2°F-17.7°C -4.5°F-20.3°C 80% Calm Calm -- 30.45 in1031.2 mb 0.00 in0.0 mm 0.00 in0.0 mm 0.00 in0.0 mm
12:00 PM -0.4°F-18.0°C -4.8°F-20.4°C 81% Calm Calm -- 30.45 in1031.2 mb 0.00 in0.0 mm 0.00 in0.0 mm 0.00 in0.0 mm
12:15 PM 2.0°F-16.7°C -1.7°F-18.7°C 84% Calm Calm -- 30.45 in1031.2 mb 0.00 in0.0 mm 0.00 in0.0 mm 0.00 in0.0 mm
12:30 PM 4.1°F-15.5°C -0.4°F-18.0°C 81% Calm Calm -- 30.45 in1031.2 mb 0.00 in0.0 mm 0.00 in0.0 mm 0.00 in0.0 mm
12:45 PM 7.4°F-13.7°C 2.3°F-16.5°C 79% Calm Calm -- 30.46 in1031.5 mb 0.00 in0.0 mm 0.00 in0.0 mm 0.00 in0.0 mm
01:00 PM 6.7°F-14.1°C 1.0°F-17.2°C 77% Calm Calm -- 30.44 in1030.8 mb 0.00 in0.0 mm 0.00 in0.0 mm 0.00 in0.0 mm
01:15 PM 7.0°F-13.9°C 1.6°F-16.9°C 78% 6.0 mph S9.7 kmh S 7.0 mph11.3 kmh 30.44 in1030.8 mb 0.00 in0.0 mm 0.00 in0.0 mm 0.00 in0.0 mm
01:30 PM 7.3°F-13.7°C 1.6°F-16.9°C 77% 5.0 mph S8.0 kmh S 8.0 mph12.9 kmh 30.43 in1030.5 mb 0.00 in0.0 mm 0.00 in0.0 mm 0.00 in0.0 mm
01:45 PM 7.4°F-13.7°C 1.7°F-16.8°C 77% 4.0 mph S6.4 kmh S 10.0 mph16.1 kmh 30.42 in1030.1 mb 0.00 in0.0 mm 0.00 in0.0 mm 0.00 in0.0 mm
02:00 PM 7.4°F-13.7°C 1.4°F-17.0°C 76% 5.0 mph S8.0 kmh S 10.0 mph16.1 kmh 30.42 in1030.1 mb 0.00 in0.0 mm 0.00 in0.0 mm 0.00 in0.0 mm
02:15 PM 7.6°F-13.6°C 1.9°F-16.7°C 77% 8.0 mph SW12.9 kmh SW 11.0 mph17.7 kmh 30.43 in1030.5 mb 0.00 in0.0 mm 0.00 in0.0 mm 0.00 in0.0 mm
02:32 PM 8.0°F-13.3°C 2.0°F-16.7°C 76% 5.0 mph SSW8.0 kmh SSW 12.0 mph19.3 kmh 30.42 in1030.1 mb 0.00 in0.0 mm 0.00 in0.0 mm 0.00 in0.0 mm
02:45 PM 8.3°F-13.2°C 2.6°F-16.3°C 77% 8.0 mph SSW12.9 kmh SSW 11.0 mph17.7 kmh 30.42 in1030.1 mb 0.00 in0.0 mm 0.00 in0.0 mm 0.00 in0.0 mm
03:00 PM 8.7°F-12.9°C 2.7°F-16.3°C 76% 8.0 mph SSW12.9 kmh SSW 10.0 mph16.1 kmh 30.41 in1029.8 mb 0.00 in0.0 mm 0.00 in0.0 mm 0.00 in0.0 mm
03:15 PM 8.6°F-13.0°C 2.6°F-16.3°C 76% 7.0 mph S11.3 kmh S 11.0 mph17.7 kmh 30.41 in1029.8 mb 0.00 in0.0 mm 0.00 in0.0 mm 0.00 in0.0 mm
03:30 PM 9.0°F-12.8°C 3.0°F-16.1°C 76% 9.0 mph SSW14.5 kmh SSW 12.0 mph19.3 kmh 30.42 in1030.1 mb 0.00 in0.0 mm 0.00 in0.0 mm 0.00 in0.0 mm
03:45 PM 8.9°F-12.8°C 2.9°F-16.2°C 76% 8.0 mph SSW12.9 kmh SSW 15.0 mph24.1 kmh 30.40 in1029.5 mb 0.00 in0.0 mm 0.00 in0.0 mm 0.00 in0.0 mm
04:00 PM 9.1°F-12.7°C 3.1°F-16.1°C 76% 10.0 mph S16.1 kmh S 11.0 mph17.7 kmh 30.39 in1029.1 mb 0.00 in0.0 mm 0.00 in0.0 mm 0.00 in0.0 mm
04:15 PM 9.0°F-12.8°C 3.0°F-16.1°C 76% 10.0 mph S16.1 kmh S 12.0 mph19.3 kmh 30.41 in1029.8 mb 0.00 in0.0 mm 0.00 in0.0 mm 0.00 in0.0 mm
04:30 PM 10.5°F-11.9°C 3.6°F-15.8°C 73% 10.0 mph NW16.1 kmh NW 12.0 mph19.3 kmh 30.41 in1029.8 mb 0.00 in0.0 mm 0.00 in0.0 mm 0.00 in0.0 mm
04:45 PM 10.5°F-11.9°C 3.6°F-15.8°C 73% 9.0 mph NNW14.5 kmh NNW 9.0 mph14.5 kmh 30.41 in1029.8 mb 0.00 in0.0 mm 0.00 in0.0 mm 0.00 in0.0 mm
05:00 PM 10.5°F-11.9°C 3.6°F-15.8°C 73% 9.0 mph NNW14.5 kmh NNW 9.0 mph14.5 kmh 30.41 in1029.8 mb 0.00 in0.0 mm 0.00 in0.0 mm 0.00 in0.0 mm
05:15 PM 10.5°F-11.9°C 3.6°F-15.8°C 73% 9.0 mph NNW14.5 kmh NNW 9.0 mph14.5 kmh 30.41 in1029.8 mb 0.00 in0.0 mm 0.00 in0.0 mm 0.00 in0.0 mm
05:30 PM 10.5°F-11.9°C 3.6°F-15.8°C 73% 9.0 mph NNW14.5 kmh NNW 9.0 mph14.5 kmh 30.41 in1029.8 mb 0.00 in0.0 mm 0.00 in0.0 mm 0.00 in0.0 mm
05:45 PM 10.5°F-11.9°C 3.6°F-15.8°C 73% 9.0 mph NNW14.5 kmh NNW 9.0 mph14.5 kmh 30.41 in1029.8 mb 0.00 in0.0 mm 0.00 in0.0 mm 0.00 in0.0 mm
06:00 PM 10.5°F-11.9°C 3.6°F-15.8°C 73% 9.0 mph NNW14.5 kmh NNW 9.0 mph14.5 kmh 30.41 in1029.8 mb 0.00 in0.0 mm 0.00 in0.0 mm 0.00 in0.0 mm
06:15 PM 10.5°F-11.9°C 3.6°F-15.8°C 73% 9.0 mph NNW14.5 kmh NNW 9.0 mph14.5 kmh 30.41 in1029.8 mb 0.00 in0.0 mm 0.00 in0.0 mm 0.00 in0.0 mm
06:30 PM 10.5°F-11.9°C 3.6°F-15.8°C 73% 9.0 mph NNW14.5 kmh NNW 9.0 mph14.5 kmh 30.41 in1029.8 mb 0.00 in0.0 mm 0.00 in0.0 mm 0.00 in0.0 mm
06:45 PM 10.5°F-11.9°C 3.6°F-15.8°C 73% 9.0 mph NNW14.5 kmh NNW 9.0 mph14.5 kmh 30.41 in1029.8 mb 0.00 in0.0 mm 0.00 in0.0 mm 0.00 in0.0 mm
07:00 PM 10.5°F-11.9°C 3.6°F-15.8°C 73% 9.0 mph NNW14.5 kmh NNW 9.0 mph14.5 kmh 30.41 in1029.8 mb 0.00 in0.0 mm 0.00 in0.0 mm 0.00 in0.0 mm
07:15 PM 10.5°F-11.9°C 3.6°F-15.8°C 73% 9.0 mph NNW14.5 kmh NNW 9.0 mph14.5 kmh 30.41 in1029.8 mb 0.00 in0.0 mm 0.00 in0.0 mm 0.00 in0.0 mm
07:30 PM 10.5°F-11.9°C 3.6°F-15.8°C 73% 9.0 mph NNW14.5 kmh NNW 9.0 mph14.5 kmh 30.41 in1029.8 mb 0.00 in0.0 mm 0.00 in0.0 mm 0.00 in0.0 mm
07:45 PM 8.6°F-13.0°C 3.4°F-15.9°C 79% 9.0 mph SW14.5 kmh SW 11.0 mph17.7 kmh 30.40 in1029.5 mb 0.00 in0.0 mm 0.00 in0.0 mm 0.00 in0.0 mm
08:00 PM 8.6°F-13.0°C 3.7°F-15.7°C 80% 9.0 mph SW14.5 kmh SW 11.0 mph17.7 kmh 30.40 in1029.5 mb 0.00 in0.0 mm 0.00 in0.0 mm 0.00 in0.0 mm
08:15 PM 9.3°F-12.6°C 4.1°F-15.5°C 79% 10.0 mph SW16.1 kmh SW 12.0 mph19.3 kmh 30.41 in1029.8 mb 0.00 in0.0 mm 0.00 in0.0 mm 0.00 in0.0 mm
08:30 PM 9.1°F-12.7°C 4.2°F-15.4°C 80% 9.0 mph SW14.5 kmh SW 12.0 mph19.3 kmh 30.41 in1029.8 mb 0.00 in0.0 mm 0.00 in0.0 mm 0.00 in0.0 mm
08:45 PM 9.1°F-12.7°C 4.2°F-15.4°C 80% 10.0 mph SW16.1 kmh SW 11.0 mph17.7 kmh 30.41 in1029.8 mb 0.00 in0.0 mm 0.00 in0.0 mm 0.00 in0.0 mm
09:00 PM 9.0°F-12.8°C 4.1°F-15.5°C 80% 9.0 mph SW14.5 kmh SW 11.0 mph17.7 kmh 30.41 in1029.8 mb 0.00 in0.0 mm 0.00 in0.0 mm 0.00 in0.0 mm
09:15 PM 9.1°F-12.7°C 4.2°F-15.4°C 80% 7.0 mph SW11.3 kmh SW 8.0 mph12.9 kmh 30.41 in1029.8 mb 0.00 in0.0 mm 0.00 in0.0 mm 0.00 in0.0 mm
09:30 PM 9.0°F-12.8°C 4.1°F-15.5°C 80% 6.0 mph SW9.7 kmh SW 10.0 mph16.1 kmh 30.40 in1029.5 mb 0.00 in0.0 mm 0.00 in0.0 mm 0.00 in0.0 mm
09:45 PM 9.1°F-12.7°C 4.2°F-15.4°C 80% 7.0 mph SW11.3 kmh SW 10.0 mph16.1 kmh 30.40 in1029.5 mb 0.00 in0.0 mm 0.00 in0.0 mm 0.00 in0.0 mm
10:00 PM 9.2°F-12.7°C 4.3°F-15.4°C 80% 6.0 mph SW9.7 kmh SW 9.0 mph14.5 kmh 30.38 in1028.8 mb 0.00 in0.0 mm 0.00 in0.0 mm 0.00 in0.0 mm
10:15 PM 9.4°F-12.6°C 4.5°F-15.3°C 80% 7.0 mph SW11.3 kmh SW 9.0 mph14.5 kmh 30.37 in1028.4 mb 0.00 in0.0 mm 0.00 in0.0 mm 0.00 in0.0 mm
10:30 PM 9.5°F-12.5°C 4.6°F-15.2°C 80% 8.0 mph SW12.9 kmh SW 11.0 mph17.7 kmh 30.37 in1028.4 mb 0.00 in0.0 mm 0.00 in0.0 mm 0.00 in0.0 mm
10:45 PM 9.5°F-12.5°C 4.9°F-15.1°C 81% 8.0 mph SW12.9 kmh SW 11.0 mph17.7 kmh 30.36 in1028.1 mb 0.00 in0.0 mm 0.00 in0.0 mm 0.00 in0.0 mm
11:00 PM 9.5°F-12.5°C 4.9°F-15.1°C 81% 9.0 mph SW14.5 kmh SW 11.0 mph17.7 kmh 30.36 in1028.1 mb 0.00 in0.0 mm 0.00 in0.0 mm 0.00 in0.0 mm
11:15 PM 10.0°F-12.2°C 5.1°F-14.9°C 80% 8.0 mph SW12.9 kmh SW 12.0 mph19.3 kmh 30.36 in1028.1 mb 0.00 in0.0 mm 0.00 in0.0 mm 0.00 in0.0 mm
11:30 PM 10.3°F-12.1°C 5.4°F-14.8°C 80% 11.0 mph SW17.7 kmh SW 12.0 mph19.3 kmh 30.36 in1028.1 mb 0.00 in0.0 mm 0.00 in0.0 mm 0.00 in0.0 mm
11:45 PM 10.3°F-12.1°C 5.4°F-14.8°C 80% 8.0 mph SW12.9 kmh SW 11.0 mph17.7 kmh 30.35 in1027.8 mb 0.00 in0.0 mm 0.00 in0.0 mm 0.00 in0.0 mm